createdAt,value
2018-11-27T00:00:32.839Z,30.20
2018-11-27T00:03:02.626Z,25.40
2018-11-27T00:05:31.630Z,27.20
2018-11-27T00:08:06.268Z,30.37
2018-11-27T00:10:35.697Z,34.40
2018-11-27T00:13:03.690Z,34.17
2018-11-27T00:15:31.645Z,32.27
2018-11-27T00:17:59.574Z,30.97
2018-11-27T00:20:27.493Z,28.90
2018-11-27T00:22:55.433Z,26.73
2018-11-27T00:25:23.349Z,26.53
2018-11-27T00:27:51.309Z,28.70
2018-11-27T00:30:20.194Z,27.77
2018-11-27T00:32:48.169Z,27.87
2018-11-27T00:35:17.732Z,29.73
2018-11-27T00:37:45.758Z,29.83
2018-11-27T00:40:19.602Z,28.20
2018-11-27T00:42:47.566Z,29.47
2018-11-27T00:45:17.564Z,30.73
2018-11-27T00:47:47.374Z,28.43
2018-11-27T00:50:18.195Z,28.57
2018-11-27T00:52:46.204Z,29.73
2018-11-27T00:55:15.189Z,28.63
2018-11-27T00:57:43.994Z,27.70
2018-11-27T01:00:14.148Z,27.37
2018-11-27T01:02:42.120Z,27.13
2018-11-27T01:05:11.521Z,27.53
2018-11-27T01:07:39.583Z,24.40
2018-11-27T01:10:22.491Z,25.93
2018-11-27T01:12:50.478Z,26.13
2018-11-27T01:15:18.448Z,28.47
2018-11-27T01:17:48.642Z,28.53
2018-11-27T01:20:17.645Z,29.10
2018-11-27T01:22:45.599Z,29.13
2018-11-27T01:25:13.590Z,27.47
2018-11-27T01:27:41.509Z,26.40
2018-11-27T01:30:17.627Z,27.47
2018-11-27T01:32:45.663Z,25.67
2018-11-27T01:35:16.252Z,26.67
2018-11-27T01:37:44.399Z,26.60
2018-11-27T01:40:17.267Z,26.07
2018-11-27T01:42:45.947Z,26.60
2018-11-27T01:45:16.063Z,25.27
2018-11-27T01:47:44.020Z,24.23
2018-11-27T01:50:13.159Z,23.77
2018-11-27T01:52:41.232Z,23.13
2018-11-27T01:55:11.281Z,23.87
2018-11-27T01:57:39.315Z,24.60
2018-11-27T02:00:22.744Z,26.50
2018-11-27T02:02:51.224Z,26.07
2018-11-27T02:05:19.212Z,29.60
2018-11-27T02:07:47.322Z,30.07
2018-11-27T02:10:15.356Z,28.83
2018-11-27T02:12:44.481Z,27.90
2018-11-27T02:15:15.677Z,27.50
2018-11-27T02:17:43.610Z,27.30
2018-11-27T02:20:11.796Z,28.47
2018-11-27T02:22:40.128Z,30.07
2018-11-27T02:25:10.661Z,27.10
2018-11-27T02:27:38.992Z,29.83
2018-11-27T02:30:09.488Z,28.90
2018-11-27T02:32:37.417Z,28.13
2018-11-27T02:35:07.642Z,27.70
2018-11-27T02:37:35.606Z,27.40
2018-11-27T02:40:04.283Z,29.10
2018-11-27T02:42:32.297Z,29.03
2018-11-27T02:45:00.254Z,29.63
2018-11-27T02:47:28.217Z,29.87
2018-11-27T02:49:56.156Z,29.47
2018-11-27T02:52:24.117Z,31.53
2018-11-27T02:54:52.072Z,29.90
2018-11-27T02:58:49.514Z,28.03
2018-11-27T03:01:17.417Z,29.13
2018-11-27T03:03:45.367Z,30.03
2018-11-27T03:06:13.312Z,31.07
2018-11-27T03:08:41.329Z,31.17
2018-11-27T03:11:09.230Z,30.33
2018-11-27T03:13:37.235Z,29.40
2018-11-27T03:16:05.204Z,27.70
2018-11-27T03:18:33.136Z,29.93
2018-11-27T03:21:01.125Z,31.93
2018-11-27T03:23:29.050Z,29.90
2018-11-27T03:25:56.965Z,31.77
2018-11-27T03:28:24.919Z,30.53
2018-11-27T03:30:52.835Z,28.73
2018-11-27T03:33:20.815Z,29.40
2018-11-27T03:35:48.761Z,28.57
2018-11-27T03:38:16.692Z,29.90
2018-11-27T03:40:44.597Z,31.03
2018-11-27T03:43:12.551Z,30.37
2018-11-27T03:45:40.503Z,31.27
2018-11-27T03:48:08.433Z,29.90
2018-11-27T03:50:36.400Z,29.33
2018-11-27T03:53:04.386Z,29.00
2018-11-27T03:55:32.447Z,29.27
2018-11-27T03:58:00.392Z,30.33
2018-11-27T04:00:29.425Z,32.93
2018-11-27T04:03:03.253Z,30.37
2018-11-27T04:05:31.249Z,31.60
2018-11-27T04:07:59.150Z,31.07
2018-11-27T04:10:27.205Z,35.43
2018-11-27T04:12:55.142Z,32.73
2018-11-27T04:15:23.097Z,31.23
2018-11-27T04:17:51.191Z,33.97
2018-11-27T04:20:19.126Z,30.97
2018-11-27T04:22:47.053Z,29.83
2018-11-27T04:25:16.231Z,30.43
2018-11-27T04:27:44.963Z,30.37
2018-11-27T04:30:15.190Z,27.67
2018-11-27T04:32:43.254Z,28.50
2018-11-27T04:35:16.041Z,29.67
2018-11-27T04:37:44.159Z,31.27
2018-11-27T04:40:13.259Z,31.90
2018-11-27T04:42:41.180Z,29.47
2018-11-27T04:45:11.282Z,29.53
2018-11-27T04:47:39.222Z,31.77
2018-11-27T04:50:09.351Z,31.53
2018-11-27T04:52:37.340Z,31.30
2018-11-27T04:55:06.700Z,29.13
2018-11-27T04:57:34.622Z,29.60
2018-11-27T05:00:02.641Z,30.20
2018-11-27T05:02:30.547Z,29.93
2018-11-27T05:04:58.459Z,31.00
2018-11-27T05:07:26.387Z,29.50
2018-11-27T05:09:54.278Z,29.30
2018-11-27T05:12:22.306Z,28.60
2018-11-27T05:14:50.269Z,27.80
2018-11-27T05:17:18.225Z,29.13
2018-11-27T05:19:46.125Z,27.77
2018-11-27T05:22:14.109Z,27.87
2018-11-27T05:24:42.051Z,31.50
2018-11-27T05:27:09.972Z,28.80
2018-11-27T05:29:37.905Z,29.67
2018-11-27T05:32:05.866Z,30.17
2018-11-27T05:34:33.781Z,28.60
2018-11-27T05:37:01.737Z,28.67
2018-11-27T05:39:29.641Z,28.30
2018-11-27T05:41:57.584Z,28.67
2018-11-27T05:44:25.566Z,27.73
2018-11-27T05:46:53.465Z,26.60
2018-11-27T05:49:21.368Z,27.27
2018-11-27T05:51:49.311Z,27.63
2018-11-27T05:54:17.290Z,26.17
2018-11-27T05:56:45.227Z,26.07
2018-11-27T05:59:13.181Z,26.33
2018-11-27T06:01:41.121Z,27.27
2018-11-27T06:07:01.375Z,27.70
2018-11-27T06:09:29.279Z,27.43
2018-11-27T06:11:57.180Z,27.10
2018-11-27T06:14:25.156Z,25.93
2018-11-27T06:16:53.192Z,26.63
2018-11-27T06:19:23.119Z,27.43
2018-11-27T06:21:51.043Z,26.37
2018-11-27T06:24:19.013Z,27.00
2018-11-27T06:26:46.957Z,26.03
2018-11-27T06:29:14.893Z,25.80
2018-11-27T06:31:42.821Z,24.63
2018-11-27T06:34:10.756Z,25.63
2018-11-27T06:36:38.678Z,24.27
2018-11-27T06:39:08.662Z,24.50
2018-11-27T06:41:36.581Z,24.40
2018-11-27T06:44:05.498Z,25.53
2018-11-27T06:46:33.409Z,24.77
2018-11-27T06:49:01.345Z,25.07
2018-11-27T06:51:29.291Z,24.87
2018-11-27T06:53:57.234Z,25.23
2018-11-27T06:56:25.208Z,25.20
2018-11-27T06:58:53.147Z,23.97
2018-11-27T07:01:21.068Z,25.60
2018-11-27T07:03:49.009Z,25.27
2018-11-27T07:06:16.955Z,25.07
2018-11-27T07:08:44.885Z,24.80
2018-11-27T07:11:12.802Z,23.73
2018-11-27T07:13:40.899Z,24.07
2018-11-27T07:16:09.160Z,23.63
2018-11-27T07:18:37.087Z,24.60
2018-11-27T07:21:07.007Z,23.33
2018-11-27T07:23:35.004Z,23.50
2018-11-27T07:26:02.950Z,24.53
2018-11-27T07:28:30.971Z,23.17
2018-11-27T07:31:13.821Z,22.73
2018-11-27T07:33:41.779Z,22.03
2018-11-27T07:36:09.693Z,22.57
2018-11-27T07:38:37.579Z,24.60
2018-11-27T07:41:05.888Z,23.80
2018-11-27T07:43:33.837Z,23.70
2018-11-27T07:46:01.805Z,24.27
2018-11-27T07:48:29.841Z,25.23
2018-11-27T07:50:57.763Z,23.87
2018-11-27T07:53:25.915Z,23.73
2018-11-27T07:55:53.892Z,22.93
2018-11-27T07:58:21.814Z,23.20
2018-11-27T08:00:49.812Z,22.50
2018-11-27T08:03:17.825Z,23.07
2018-11-27T08:05:45.768Z,22.83
2018-11-27T08:09:44.952Z,23.30
2018-11-27T08:12:16.609Z,22.63
2018-11-27T08:14:44.657Z,23.63
2018-11-27T08:17:12.589Z,24.97
2018-11-27T08:19:40.496Z,24.73
2018-11-27T08:22:08.384Z,22.93
2018-11-27T08:24:36.350Z,23.53
2018-11-27T08:27:04.703Z,23.47
2018-11-27T08:29:32.667Z,24.77
2018-11-27T08:32:00.706Z,23.93
2018-11-27T08:34:28.622Z,23.33
2018-11-27T08:36:56.554Z,22.63
2018-11-27T08:39:24.523Z,22.77
2018-11-27T08:41:52.440Z,23.23
2018-11-27T08:44:20.345Z,22.10
2018-11-27T08:46:48.321Z,22.50
2018-11-27T08:49:16.249Z,21.90
2018-11-27T08:51:44.160Z,23.53
2018-11-27T08:54:18.359Z,23.03
2018-11-27T08:56:47.060Z,23.43
2018-11-27T08:59:14.997Z,21.83
2018-11-27T09:01:42.926Z,23.57
2018-11-27T09:04:13.877Z,23.13
2018-11-27T09:06:42.335Z,22.57
2018-11-27T09:09:17.941Z,22.80
2018-11-27T09:11:46.311Z,21.83
2018-11-27T09:14:29.172Z,23.13
2018-11-27T09:16:57.074Z,22.97
2018-11-27T09:19:25.014Z,21.40
2018-11-27T09:21:52.969Z,23.57
2018-11-27T09:24:21.010Z,21.30
2018-11-27T09:26:48.931Z,22.93
2018-11-27T09:29:16.906Z,23.80
2018-11-27T09:31:44.813Z,22.60
2018-11-27T09:34:12.819Z,22.20
2018-11-27T09:36:40.798Z,23.30
2018-11-27T09:39:09.848Z,23.10
2018-11-27T09:41:37.816Z,23.80
2018-11-27T09:44:07.426Z,22.50
2018-11-27T09:46:35.645Z,23.40
2018-11-27T09:49:03.649Z,24.07
2018-11-27T09:51:31.660Z,24.43
2018-11-27T09:53:59.638Z,23.97
2018-11-27T09:56:27.575Z,25.07
2018-11-27T09:58:55.549Z,23.10
2018-11-27T10:01:25.639Z,23.60
2018-11-27T10:03:53.594Z,23.67
2018-11-27T10:06:21.673Z,22.97
2018-11-27T10:08:49.596Z,23.03
2018-11-27T10:11:17.545Z,22.13
2018-11-27T10:13:45.477Z,21.23
2018-11-27T10:16:13.362Z,20.30
2018-11-27T10:18:41.249Z,23.47
2018-11-27T10:21:09.193Z,21.97
2018-11-27T10:23:37.105Z,23.30
2018-11-27T10:26:05.397Z,20.77
2018-11-27T10:28:33.360Z,21.07
2018-11-27T10:31:01.362Z,23.03
2018-11-27T10:33:29.313Z,20.07
2018-11-27T10:35:57.523Z,21.13
2018-11-27T10:38:26.437Z,20.30
2018-11-27T10:40:53.581Z,18.77
2018-11-27T10:43:21.561Z,21.33
2018-11-27T10:45:49.674Z,20.37
2018-11-27T10:48:17.564Z,19.93
2018-11-27T10:50:45.513Z,19.63
2018-11-27T10:53:13.494Z,20.20
2018-11-27T10:55:41.422Z,18.90
2018-11-27T10:58:09.569Z,18.77
2018-11-27T11:00:44.612Z,19.07
2018-11-27T11:03:43.006Z,18.97
2018-11-27T11:06:11.119Z,17.07
2018-11-27T11:08:39.097Z,17.83
2018-11-27T11:11:07.913Z,17.60
2018-11-27T11:13:35.948Z,17.67
2018-11-27T11:16:03.976Z,16.87
2018-11-27T11:18:32.132Z,16.30
2018-11-27T11:21:00.119Z,16.90
2018-11-27T11:23:28.216Z,15.63
2018-11-27T11:25:56.197Z,15.27
2018-11-27T11:28:26.509Z,15.83
2018-11-27T11:30:54.412Z,15.60
2018-11-27T11:33:22.340Z,15.83
2018-11-27T11:35:50.268Z,15.70
2018-11-27T11:38:18.198Z,15.07
2018-11-27T11:40:46.268Z,14.20
2018-11-27T11:43:14.177Z,16.43
2018-11-27T11:45:50.110Z,16.50
2018-11-27T11:48:18.046Z,15.00
2018-11-27T11:50:45.968Z,17.00
2018-11-27T11:53:16.241Z,16.23
2018-11-27T11:55:51.844Z,16.90
2018-11-27T11:58:20.456Z,16.00
2018-11-27T12:00:50.798Z,15.30
2018-11-27T12:03:18.787Z,15.73
2018-11-27T12:05:46.791Z,15.40
2018-11-27T12:08:14.778Z,13.87
2018-11-27T12:10:42.703Z,14.00
2018-11-27T12:13:11.857Z,14.80
2018-11-27T12:15:39.847Z,14.50
2018-11-27T12:18:08.857Z,15.20
2018-11-27T12:20:37.364Z,16.03
2018-11-27T12:23:06.921Z,14.90
2018-11-27T12:25:41.975Z,15.57
2018-11-27T12:28:14.684Z,15.73
2018-11-27T12:30:38.894Z,16.23
2018-11-27T12:33:07.239Z,16.77
2018-11-27T12:35:35.530Z,17.20
2018-11-27T12:38:03.610Z,16.43
2018-11-27T12:40:31.582Z,17.33
2018-11-27T12:42:59.566Z,17.60
2018-11-27T12:45:29.375Z,17.10
2018-11-27T12:47:58.558Z,17.40
2018-11-27T12:50:28.299Z,16.70
2018-11-27T12:52:56.262Z,15.80
2018-11-27T12:55:24.539Z,16.83
2018-11-27T12:57:52.536Z,16.53
2018-11-27T13:00:22.390Z,16.27
2018-11-27T13:02:50.446Z,15.83
2018-11-27T13:05:22.872Z,16.53
2018-11-27T13:07:52.454Z,14.57
2018-11-27T13:10:20.449Z,13.27
2018-11-27T13:12:48.351Z,13.03
2018-11-27T13:15:20.506Z,13.67
2018-11-27T13:17:50.663Z,13.37
2018-11-27T13:20:19.413Z,13.10
2018-11-27T13:22:48.093Z,12.30
2018-11-27T13:25:20.205Z,12.53
2018-11-27T13:27:48.997Z,12.90
2018-11-27T13:30:22.289Z,12.83
2018-11-27T13:32:52.552Z,11.67
2018-11-27T13:35:21.374Z,11.13
2018-11-27T13:37:49.407Z,10.90
2018-11-27T13:40:17.488Z,11.17
2018-11-27T13:42:45.616Z,10.80
2018-11-27T13:45:14.561Z,10.70
2018-11-27T13:47:43.090Z,10.60
2018-11-27T13:50:13.698Z,9.83
2018-11-27T13:52:42.221Z,9.53
2018-11-27T13:55:17.355Z,8.57
2018-11-27T13:57:45.381Z,8.80
2018-11-27T14:00:17.270Z,8.10
2018-11-27T14:02:48.972Z,7.80
2018-11-27T14:05:19.450Z,7.70
2018-11-27T14:07:47.440Z,7.87
2018-11-27T14:10:15.442Z,7.63
2018-11-27T14:12:44.312Z,6.80
2018-11-27T14:15:16.459Z,6.77
2018-11-27T14:17:44.658Z,6.83
2018-11-27T14:20:13.804Z,7.20
2018-11-27T14:22:42.809Z,6.67
2018-11-27T14:25:11.762Z,7.03
2018-11-27T14:27:42.063Z,7.37
2018-11-27T14:30:15.968Z,6.87
2018-11-27T14:32:44.860Z,7.43
2018-11-27T14:35:21.416Z,7.20
2018-11-27T14:37:51.430Z,7.30
2018-11-27T14:40:21.606Z,7.10
2018-11-27T14:42:50.619Z,7.37
2018-11-27T14:45:20.757Z,6.90
2018-11-27T14:47:50.942Z,6.80
2018-11-27T14:50:19.079Z,7.07
2018-11-27T14:52:48.897Z,7.10
2018-11-27T14:55:23.225Z,6.87
2018-11-27T14:57:51.989Z,6.80
2018-11-27T15:00:21.382Z,6.90
2018-11-27T15:02:58.172Z,6.63
2018-11-27T15:05:34.060Z,8.03
2018-11-27T15:08:03.388Z,7.93
2018-11-27T15:10:31.906Z,7.60
2018-11-27T15:13:00.735Z,7.93
2018-11-27T15:15:29.620Z,7.80
2018-11-27T15:17:58.358Z,6.70
2018-11-27T15:20:26.954Z,7.10
2018-11-27T15:22:55.607Z,21.07
2018-11-27T15:25:23.618Z,7.33
2018-11-27T15:27:52.151Z,6.93
2018-11-27T15:30:21.403Z,6.83
2018-11-27T15:32:50.782Z,6.50
2018-11-27T15:35:18.800Z,6.00
2018-11-27T15:37:47.983Z,7.10
2018-11-27T15:40:17.269Z,6.57
2018-11-27T15:42:45.281Z,6.07
2018-11-27T15:45:16.382Z,6.20
2018-11-27T15:47:45.695Z,5.97
2018-11-27T15:50:13.656Z,5.93
2018-11-27T15:52:44.097Z,6.07
2018-11-27T15:55:16.413Z,5.73
2018-11-27T15:57:45.414Z,6.90
2018-11-27T16:00:15.224Z,6.97
2018-11-27T16:02:44.785Z,6.30
2018-11-27T16:05:13.405Z,6.70
2018-11-27T16:07:42.642Z,6.40
2018-11-27T16:10:15.061Z,6.17
2018-11-27T16:12:45.750Z,6.37
2018-11-27T16:15:15.132Z,6.60
2018-11-27T16:19:39.266Z,6.00
2018-11-27T16:22:07.955Z,6.63
2018-11-27T16:24:41.233Z,6.03
2018-11-27T16:27:17.475Z,6.20
2018-11-27T16:29:47.159Z,5.70
2018-11-27T16:32:17.160Z,5.87
2018-11-27T16:34:47.433Z,5.83
2018-11-27T16:37:16.819Z,6.30
2018-11-27T16:39:44.945Z,6.17
2018-11-27T16:42:15.657Z,6.07
2018-11-27T16:44:44.496Z,6.30
2018-11-27T16:47:15.114Z,6.00
2018-11-27T16:49:47.321Z,5.90
2018-11-27T16:52:18.037Z,6.10
2018-11-27T16:54:46.929Z,6.20
2018-11-27T16:57:18.489Z,6.60
2018-11-27T16:59:49.434Z,5.90
2018-11-27T17:02:20.100Z,6.43
2018-11-27T17:04:48.349Z,6.70
2018-11-27T17:07:18.203Z,6.03
2018-11-27T17:09:47.566Z,6.10
2018-11-27T17:12:18.817Z,5.97
2018-11-27T17:14:47.192Z,6.20
2018-11-27T17:17:22.448Z,5.87
2018-11-27T17:19:50.808Z,6.00
2018-11-27T17:22:20.791Z,5.87
2018-11-27T17:24:49.196Z,6.60
2018-11-27T17:27:24.265Z,5.90
2018-11-27T17:29:53.611Z,5.87
2018-11-27T17:32:24.532Z,6.20
2018-11-27T17:34:52.913Z,5.40
2018-11-27T17:37:26.981Z,5.40
2018-11-27T17:39:57.168Z,5.60
2018-11-27T17:42:26.101Z,5.50
2018-11-27T17:44:56.311Z,6.17
2018-11-27T17:47:26.002Z,5.50
2018-11-27T17:50:11.741Z,5.43
2018-11-27T17:52:41.001Z,5.07
2018-11-27T17:55:13.936Z,5.70
2018-11-27T17:57:44.295Z,5.63
2018-11-27T18:00:16.312Z,5.10
2018-11-27T18:02:51.577Z,11.00
2018-11-27T18:05:21.252Z,7.70
2018-11-27T18:07:50.546Z,15.87
2018-11-27T18:10:19.342Z,18.47
2018-11-27T18:12:52.725Z,12.67
2018-11-27T18:15:22.201Z,10.90
2018-11-27T18:17:52.925Z,17.23
2018-11-27T18:20:23.144Z,8.20
2018-11-27T18:22:55.246Z,8.13
2018-11-27T18:25:28.981Z,6.10
2018-11-27T18:27:59.277Z,5.13
2018-11-27T18:30:29.697Z,5.33
2018-11-27T18:33:02.076Z,5.30
2018-11-27T18:35:36.165Z,5.20
2018-11-27T18:38:07.114Z,4.70
2018-11-27T18:40:38.475Z,5.27
2018-11-27T18:43:08.262Z,4.83
2018-11-27T18:45:38.233Z,4.90
2018-11-27T18:48:08.811Z,4.63
2018-11-27T18:50:39.633Z,4.77
2018-11-27T18:53:08.974Z,4.53
2018-11-27T18:55:52.760Z,4.80
2018-11-27T18:58:33.085Z,5.17
2018-11-27T19:01:11.887Z,4.77
2018-11-27T19:03:44.828Z,4.70
2018-11-27T19:06:13.597Z,5.00
2018-11-27T19:08:43.199Z,4.70
2018-11-27T19:11:15.970Z,4.10
2018-11-27T19:13:45.733Z,4.30
2018-11-27T19:16:15.626Z,4.50
2018-11-27T19:18:47.213Z,4.30
2018-11-27T19:21:17.460Z,3.93
2018-11-27T19:23:54.743Z,3.97
2018-11-27T19:26:26.705Z,4.07
2018-11-27T19:29:00.021Z,4.63
2018-11-27T19:31:30.186Z,4.20
2018-11-27T19:34:00.896Z,4.20
2018-11-27T19:36:32.029Z,4.13
2018-11-27T19:39:05.703Z,4.37
2018-11-27T19:41:35.280Z,4.47
2018-11-27T19:44:03.999Z,4.53
2018-11-27T19:46:33.661Z,4.37
2018-11-27T19:49:03.964Z,4.43
2018-11-27T19:51:35.941Z,7.57
2018-11-27T19:54:08.160Z,18.47
2018-11-27T19:56:40.437Z,13.37
2018-11-27T19:59:10.092Z,14.00
2018-11-27T20:01:39.969Z,12.00
2018-11-27T20:04:23.707Z,6.93
2018-11-27T20:06:58.510Z,8.07
2018-11-27T20:09:31.600Z,6.33
2018-11-27T20:12:05.261Z,6.10
2018-11-27T20:14:35.452Z,5.63
2018-11-27T20:17:06.548Z,6.97
2018-11-27T20:19:38.081Z,7.00
2018-11-27T20:22:08.408Z,7.73
2018-11-27T20:24:39.733Z,6.17
2018-11-27T20:27:09.893Z,6.40
2018-11-27T20:29:39.657Z,6.83
2018-11-27T20:32:11.425Z,6.80
2018-11-27T20:36:49.193Z,6.47
2018-11-27T20:39:22.270Z,7.03
2018-11-27T20:41:59.532Z,7.10
2018-11-27T20:44:32.648Z,7.30
2018-11-27T20:47:07.457Z,7.33
2018-11-27T20:49:35.822Z,6.53
2018-11-27T20:52:06.759Z,6.93
2018-11-27T20:54:38.374Z,6.67
2018-11-27T20:57:12.343Z,7.30
2018-11-27T20:59:44.030Z,7.40
2018-11-27T21:02:14.707Z,7.20
2018-11-27T21:04:45.678Z,7.37
2018-11-27T21:07:16.632Z,7.00
2018-11-27T21:09:46.382Z,8.13
2018-11-27T21:12:17.412Z,9.60
2018-11-27T21:14:46.043Z,8.20
2018-11-27T21:17:16.316Z,7.53
2018-11-27T21:19:48.168Z,6.93
2018-11-27T21:22:17.973Z,6.97
2018-11-27T21:24:47.375Z,6.37
2018-11-27T21:27:15.818Z,6.87
2018-11-27T21:29:45.668Z,7.10
2018-11-27T21:32:17.905Z,6.60
2018-11-27T21:34:51.675Z,6.80
2018-11-27T21:37:25.612Z,6.43
2018-11-27T21:39:57.537Z,6.80
2018-11-27T21:42:26.334Z,6.90
2018-11-27T21:44:57.360Z,7.00
2018-11-27T21:47:30.799Z,7.07
2018-11-27T21:50:00.221Z,6.70
2018-11-27T21:52:30.836Z,7.90
2018-11-27T21:55:01.227Z,7.37
2018-11-27T21:57:30.022Z,7.73
2018-11-27T22:00:02.847Z,7.53
2018-11-27T22:02:34.128Z,7.70
2018-11-27T22:05:04.903Z,7.47
2018-11-27T22:07:33.430Z,8.80
2018-11-27T22:10:01.955Z,9.73
2018-11-27T22:12:30.757Z,9.17
2018-11-27T22:14:59.310Z,8.97
2018-11-27T22:17:28.126Z,9.27
2018-11-27T22:20:00.086Z,9.87
2018-11-27T22:22:28.661Z,8.80
2018-11-27T22:24:57.904Z,9.80
2018-11-27T22:27:25.863Z,9.13
2018-11-27T22:29:53.780Z,8.07
2018-11-27T22:32:23.541Z,8.57
2018-11-27T22:34:53.087Z,8.23
2018-11-27T22:37:22.332Z,8.90
2018-11-27T22:39:50.948Z,8.70
2018-11-27T22:42:19.773Z,9.37
2018-11-27T22:44:47.732Z,8.80
2018-11-27T22:47:15.671Z,8.13
2018-11-27T22:49:44.289Z,7.63
2018-11-27T22:52:14.187Z,8.70
2018-11-27T22:54:42.685Z,7.60
2018-11-27T22:57:11.185Z,8.17
2018-11-27T22:59:39.638Z,8.30
2018-11-27T23:02:08.102Z,9.00
2018-11-27T23:04:36.601Z,7.97
2018-11-27T23:07:05.044Z,8.43
2018-11-27T23:09:33.578Z,9.03
2018-11-27T23:12:02.718Z,9.03
2018-11-27T23:14:31.317Z,8.80
2018-11-27T23:16:59.649Z,8.27
2018-11-27T23:19:28.384Z,7.97
2018-11-27T23:21:56.335Z,8.03
2018-11-27T23:24:24.237Z,8.53
2018-11-27T23:26:52.221Z,8.57
2018-11-27T23:29:20.124Z,7.77
2018-11-27T23:31:48.475Z,8.63
2018-11-27T23:34:17.178Z,8.30
2018-11-27T23:36:45.785Z,8.23
2018-11-27T23:39:14.323Z,8.37
2018-11-27T23:41:42.843Z,7.67
2018-11-27T23:44:12.522Z,7.80
2018-11-27T23:46:41.223Z,7.63
2018-11-27T23:49:10.529Z,7.17
2018-11-27T23:51:39.190Z,6.93
2018-11-27T23:54:07.668Z,7.03
2018-11-27T23:56:36.188Z,6.77
2018-11-27T23:59:04.522Z,7.20
